AirNav   Everest Fuels
 
 1013 users online  

NC25 Gold Hill Airport
Gold Hill, North Carolina, USA

GOING TO GOLD HILL?


FAA INFORMATION EFFECTIVE 25 MARCH 2021

Location

FAA Identifier: NC25
Lat/Long: 35-30-32.5030N 080-18-40.2060W
35-30.541717N 080-18.670100W
35.5090286,-80.3111683
(estimated)
Elevation: 720 ft. / 219.5 m (surveyed)
Variation: 06W (1985)
From city: 2 miles SE of GOLD HILL, NC
Time zone: UTC -4 (UTC -5 during Standard Time)
Zip code: 28071

Airport Operations

Airport use: Private use. Permission required prior to landing
Activation date: 03/1976
Control tower: no
ARTCC: ATLANTA CENTER
FSS: RALEIGH FLIGHT SERVICE STATION
Attendance: 0830-DUSK
Wind indicator: yes
Segmented circle: no
Lights: ACTVT LIRL RWY 09/27 - 122.975, 5 CLICKS IN 5 SCNDS.

Airport Communications

UNICOM: 122.975
WX AWOS-3 at VUJ (10 nm SE): 128.175 (704-986-2097)
WX AWOS-3 at RUQ (13 nm NW): 118.175 (704-637-6197)
WX AWOS-3 at EXX (16 nm N): 119.825 (336-956-2967)

Nearby radio navigation aids

VOR radial/distance  VOR name  Freq  Var
GSOr210/36.1GREENSBORO VORTAC116.2003W
CLTr064/36.7CHARLOTTE VOR/DME115.0005W
LIBr245/38.6LIBERTY VORTAC113.0003W
SDZr299/39.5SANDHILLS VORTAC111.8003W

 
NDB name  Hdg/Dist  Freq  Var  ID
ALLER282/11.234606WVU ...- ..-

Airport Services

Parking: hangars

Runway Information

Runway 9/27

Dimensions: 3000 x 30 ft. / 914 x 9 m
Surface: asphalt
Runway edge lights: low intensity
RUNWAY 9  RUNWAY 27
Traffic pattern: leftleft
Obstructions: none30 ft. trees, 500 ft. from runway, 16:1 slope to clear

Airport Ownership and Management from official FAA records

Ownership: Privately-owned
Owner: GOLD HILL HOMEOWNERS ASSOCIATION
295 FINE ST
GOLD HILL, NC 28071
Phone (704) 209-1962
Manager: JOHN CIOLINO
245 FINE STREET
GOLD HILL, NC 28071
Phone (704) 209-1962
JOHN B. CIOLINO 285 AVIATION LANE GOLD HILL, NC 28071 704-209-1962

Airport Operational Statistics

Aircraft based on the field: 17
Single engine airplanes: 16
Helicopters: 1
    

Additional Remarks

RY 09, 50 FT TREES 170 FT FM THR ON CNTRLN.
FOR CD CTC CHARLOTTE APCH AT 704-359-0241.

Instrument Procedures

There are no published instrument procedures at NC25.

Some nearby airports with instrument procedures:

KVUJ - Stanly County Airport (10 nm SE)
KRUQ - Mid-Carolina Regional Airport (13 nm NW)
KEXX - Davidson County Airport (16 nm N)
KJQF - Concord-Padgett Regional Airport (21 nm W)
KHBI - Asheboro Regional Airport (22 nm NE)
 
Loc | Ops | Rwys | IFR | FBO | Links
Com | Nav | Svcs | Stats | Notes
Area around NC25 (Gold Hill Airport)
 
Road maps at: MapQuest Bing Google
 
Aerial photo
WARNING: Photo may not be current or correct
Aerial photo of NC25 (Gold Hill Airport)
Photo by Ron Schreck
Photo taken 21-May-2014
looking northwest.

Do you have a better or more recent aerial photo of Gold Hill Airport that you would like to share? If so, please send us your photo.

 
Sectional chart

 
Airport distance calculator
Flying to Gold Hill Airport? Find the distance to fly.

From to NC25

Sunrise and sunset
Times for 15-Apr-2021
 Local
(UTC-4)
 Zulu
(UTC)
Morning civil twilight06:2310:23
Sunrise06:5010:50
Sunset19:5323:53
Evening civil twilight20:1900:19

Current date and time
Zulu (UTC)  16-Apr-2021 01:08:26
Local (UTC-4)  15-Apr-2021 21:08:26
 
METAR
KVUJ 
10nm SE 
160055Z AUTO 36004KT 10SM CLR 13/07 A2984 RMK AO2 T01270067
KRUQ 
13nm NW 
160055Z AUTO 31004KT 10SM CLR 15/01 A2981 RMK AO2 T01470010
KEXX 
16nm N 
160055Z AUTO 00000KT 10SM CLR 15/01 A2980 RMK AO2 T01500010
TAF
KCLT 
36nm SW 
152202Z 1522/1624 29010KT P6SM FEW060 TEMPO 1522/1601 30012G18KT FM160100 34010KT P6SM FEW250 FM160600 34004KT P6SM SKC FM161400 31007KT P6SM FEW250 FM161800 26007KT P6SM FEW150
KINT 
38nm N 
151935Z 1520/1618 29008KT P6SM SCT070 BKN100 FM160100 32005KT P6SM FEW250 FM161400 31009G15KT P6SM SKC
KGSO 
40nm NE 
151935Z 1520/1618 30011G16KT P6SM FEW060 SCT120 BKN250 FM160200 32007KT P6SM FEW250
NOTAMs
Click for the latest NOTAMs
NOTAMs are issued by the DoD/FAA and will open in a separate window not controlled by AirNav.

 

 
 

Would you like to see your business listed on this page?

 If your business provides an interesting product or service to pilots, flight crews, aircraft, or users of the Gold Hill Airport, you should consider listing it here.  To start the listing process, click on the button below
 
Add a business
 

Other Pages about Gold Hill Airport

Update a link
 
Copyright © AirNav, LLC. All rights reserved. Privacy Policy  Contact